sensor_id;sensor_type;location;lat;lon;timestamp;temperature;humidity
38995;DHT22;24769;18.712;99.000;2024-03-17T00:01:12;21.30;81.80
38995;DHT22;24769;18.712;99.000;2024-03-17T00:03:39;21.40;79.80
38995;DHT22;24769;18.712;99.000;2024-03-17T00:06:06;21.40;81.50
38995;DHT22;24769;18.712;99.000;2024-03-17T00:08:34;21.50;80.70
38995;DHT22;24769;18.712;99.000;2024-03-17T00:11:01;21.40;82.50
38995;DHT22;24769;18.712;99.000;2024-03-17T00:13:27;21.50;81.80
38995;DHT22;24769;18.712;99.000;2024-03-17T00:15:54;21.70;79.20
38995;DHT22;24769;18.712;99.000;2024-03-17T00:18:21;21.70;81.10
38995;DHT22;24769;18.712;99.000;2024-03-17T00:20:47;21.80;79.70
38995;DHT22;24769;18.712;99.000;2024-03-17T00:23:14;21.80;80.30
38995;DHT22;24769;18.712;99.000;2024-03-17T00:25:41;21.90;79.20
38995;DHT22;24769;18.712;99.000;2024-03-17T00:28:08;22.00;78.30
38995;DHT22;24769;18.712;99.000;2024-03-17T00:30:35;22.10;78.40
38995;DHT22;24769;18.712;99.000;2024-03-17T00:33:02;22.20;78.10
38995;DHT22;24769;18.712;99.000;2024-03-17T00:35:29;22.30;79.50
38995;DHT22;24769;18.712;99.000;2024-03-17T00:37:56;22.40;77.20
38995;DHT22;24769;18.712;99.000;2024-03-17T00:40:24;22.40;73.20
38995;DHT22;24769;18.712;99.000;2024-03-17T00:42:51;22.50;71.50
38995;DHT22;24769;18.712;99.000;2024-03-17T00:45:20;22.50;71.40
38995;DHT22;24769;18.712;99.000;2024-03-17T00:47:46;22.40;71.40
38995;DHT22;24769;18.712;99.000;2024-03-17T00:50:13;22.40;71.00
38995;DHT22;24769;18.712;99.000;2024-03-17T00:52:40;22.60;71.30
38995;DHT22;24769;18.712;99.000;2024-03-17T00:55:08;22.60;69.90
38995;DHT22;24769;18.712;99.000;2024-03-17T00:57:36;22.80;67.20
38995;DHT22;24769;18.712;99.000;2024-03-17T01:00:04;22.90;66.00
38995;DHT22;24769;18.712;99.000;2024-03-17T01:02:32;22.90;65.40
38995;DHT22;24769;18.712;99.000;2024-03-17T01:04:59;23.00;63.60
38995;DHT22;24769;18.712;99.000;2024-03-17T01:07:25;23.10;61.40
38995;DHT22;24769;18.712;99.000;2024-03-17T01:09:52;23.20;63.80
38995;DHT22;24769;18.712;99.000;2024-03-17T01:12:20;23.40;64.00
38995;DHT22;24769;18.712;99.000;2024-03-17T01:14:47;23.60;60.30
38995;DHT22;24769;18.712;99.000;2024-03-17T01:17:13;23.70;57.00
38995;DHT22;24769;18.712;99.000;2024-03-17T01:19:40;24.00;50.50
38995;DHT22;24769;18.712;99.000;2024-03-17T01:22:07;24.30;47.20
38995;DHT22;24769;18.712;99.000;2024-03-17T01:24:33;24.50;43.40
38995;DHT22;24769;18.712;99.000;2024-03-17T01:27:01;24.70;39.80
38995;DHT22;24769;18.712;99.000;2024-03-17T01:29:28;25.00;38.10
38995;DHT22;24769;18.712;99.000;2024-03-17T01:31:54;25.30;37.00
38995;DHT22;24769;18.712;99.000;2024-03-17T01:34:22;25.40;30.30
38995;DHT22;24769;18.712;99.000;2024-03-17T01:36:51;25.60;28.40
38995;DHT22;24769;18.712;99.000;2024-03-17T01:39:18;25.70;27.50
38995;DHT22;24769;18.712;99.000;2024-03-17T01:41:47;25.80;25.40
38995;DHT22;24769;18.712;99.000;2024-03-17T01:44:27;26.00;23.40
38995;DHT22;24769;18.712;99.000;2024-03-17T01:46:57;26.40;22.00
38995;DHT22;24769;18.712;99.000;2024-03-17T01:49:25;27.00;19.30
38995;DHT22;24769;18.712;99.000;2024-03-17T01:51:54;27.10;18.20
38995;DHT22;24769;18.712;99.000;2024-03-17T01:54:21;27.10;18.10
38995;DHT22;24769;18.712;99.000;2024-03-17T01:56:48;27.30;17.20
38995;DHT22;24769;18.712;99.000;2024-03-17T01:59:15;27.70;15.70
38995;DHT22;24769;18.712;99.000;2024-03-17T02:01:42;27.90;14.00
38995;DHT22;24769;18.712;99.000;2024-03-17T02:04:09;28.20;12.50
38995;DHT22;24769;18.712;99.000;2024-03-17T02:06:35;28.50;11.60
38995;DHT22;24769;18.712;99.000;2024-03-17T02:09:02;28.30;10.00
38995;DHT22;24769;18.712;99.000;2024-03-17T02:11:31;28.30;9.60
38995;DHT22;24769;18.712;99.000;2024-03-17T02:14:01;28.20;11.20
38995;DHT22;24769;18.712;99.000;2024-03-17T02:16:28;28.50;10.30
38995;DHT22;24769;18.712;99.000;2024-03-17T02:18:57;28.60;8.80
38995;DHT22;24769;18.712;99.000;2024-03-17T02:21:25;28.30;9.20
38995;DHT22;24769;18.712;99.000;2024-03-17T02:23:56;28.40;7.80
38995;DHT22;24769;18.712;99.000;2024-03-17T02:26:24;28.40;5.60
38995;DHT22;24769;18.712;99.000;2024-03-17T02:28:51;28.30;3.80
38995;DHT22;24769;18.712;99.000;2024-03-17T02:31:19;28.30;2.80
38995;DHT22;24769;18.712;99.000;2024-03-17T02:33:46;28.60;3.30
38995;DHT22;24769;18.712;99.000;2024-03-17T02:36:13;29.00;3.30
38995;DHT22;24769;18.712;99.000;2024-03-17T02:38:42;29.10;1.00
38995;DHT22;24769;18.712;99.000;2024-03-17T02:41:27;29.20;2.70
38995;DHT22;24769;18.712;99.000;2024-03-17T02:43:56;29.50;1.00
38995;DHT22;24769;18.712;99.000;2024-03-17T02:46:23;29.50;1.30
38995;DHT22;24769;18.712;99.000;2024-03-17T02:48:52;29.20;3.00
38995;DHT22;24769;18.712;99.000;2024-03-17T02:51:22;29.50;3.60
38995;DHT22;24769;18.712;99.000;2024-03-17T02:53:51;29.60;4.20
38995;DHT22;24769;18.712;99.000;2024-03-17T02:56:18;29.70;3.30
38995;DHT22;24769;18.712;99.000;2024-03-17T02:58:48;30.10;1.90
38995;DHT22;24769;18.712;99.000;2024-03-17T03:01:18;29.70;1.00
38995;DHT22;24769;18.712;99.000;2024-03-17T03:03:45;30.10;1.00
38995;DHT22;24769;18.712;99.000;2024-03-17T03:06:12;30.30;1.00
38995;DHT22;24769;18.712;99.000;2024-03-17T03:08:40;30.40;1.00
38995;DHT22;24769;18.712;99.000;2024-03-17T03:11:10;30.40;1.00
38995;DHT22;24769;18.712;99.000;2024-03-17T03:13:41;30.60;1.00
38995;DHT22;24769;18.712;99.000;2024-03-17T03:16:09;30.40;1.00
38995;DHT22;24769;18.712;99.000;2024-03-17T03:18:37;30.70;1.00
38995;DHT22;24769;18.712;99.000;2024-03-17T03:21:05;30.90;1.00
38995;DHT22;24769;18.712;99.000;2024-03-17T03:23:35;31.10;1.00
38995;DHT22;24769;18.712;99.000;2024-03-17T03:26:03;31.10;1.00
38995;DHT22;24769;18.712;99.000;2024-03-17T03:28:33;31.40;1.00
38995;DHT22;24769;18.712;99.000;2024-03-17T03:31:00;31.50;1.00
38995;DHT22;24769;18.712;99.000;2024-03-17T03:33:28;31.50;1.00
38995;DHT22;24769;18.712;99.000;2024-03-17T03:35:55;31.60;1.00
38995;DHT22;24769;18.712;99.000;2024-03-17T03:38:22;31.00;1.00
38995;DHT22;24769;18.712;99.000;2024-03-17T03:40:49;31.30;1.00
38995;DHT22;24769;18.712;99.000;2024-03-17T03:43:16;31.60;1.00
38995;DHT22;24769;18.712;99.000;2024-03-17T03:45:43;31.80;1.00
38995;DHT22;24769;18.712;99.000;2024-03-17T03:48:11;31.60;1.00
38995;DHT22;24769;18.712;99.000;2024-03-17T03:50:40;31.70;1.00
38995;DHT22;24769;18.712;99.000;2024-03-17T03:53:06;31.80;1.00
38995;DHT22;24769;18.712;99.000;2024-03-17T03:55:33;31.90;1.00
38995;DHT22;24769;18.712;99.000;2024-03-17T03:58:00;31.90;1.00
38995;DHT22;24769;18.712;99.000;2024-03-17T04:00:27;32.20;1.00
38995;DHT22;24769;18.712;99.000;2024-03-17T04:03:04;32.00;1.00
38995;DHT22;24769;18.712;99.000;2024-03-17T04:05:30;32.20;1.00
38995;DHT22;24769;18.712;99.000;2024-03-17T04:07:58;32.20;1.00
38995;DHT22;24769;18.712;99.000;2024-03-17T04:10:25;32.70;1.00
38995;DHT22;24769;18.712;99.000;2024-03-17T04:12:52;32.70;1.00
38995;DHT22;24769;18.712;99.000;2024-03-17T04:15:19;32.50;1.00
38995;DHT22;24769;18.712;99.000;2024-03-17T04:17:46;32.90;1.00
38995;DHT22;24769;18.712;99.000;2024-03-17T04:20:13;33.10;1.00
38995;DHT22;24769;18.712;99.000;2024-03-17T04:22:41;33.00;1.00
38995;DHT22;24769;18.712;99.000;2024-03-17T04:25:11;32.70;1.00
38995;DHT22;24769;18.712;99.000;2024-03-17T04:27:40;32.90;1.00
38995;DHT22;24769;18.712;99.000;2024-03-17T04:30:07;33.30;1.00
38995;DHT22;24769;18.712;99.000;2024-03-17T04:32:34;33.10;1.00
38995;DHT22;24769;18.712;99.000;2024-03-17T04:35:01;33.30;1.00
38995;DHT22;24769;18.712;99.000;2024-03-17T04:37:28;33.00;1.00
38995;DHT22;24769;18.712;99.000;2024-03-17T04:39:55;33.00;1.00
38995;DHT22;24769;18.712;99.000;2024-03-17T04:42:23;33.50;1.00
38995;DHT22;24769;18.712;99.000;2024-03-17T04:44:50;33.40;1.00
38995;DHT22;24769;18.712;99.000;2024-03-17T04:47:17;33.50;1.00
38995;DHT22;24769;18.712;99.000;2024-03-17T04:49:44;33.90;1.00
38995;DHT22;24769;18.712;99.000;2024-03-17T04:52:12;34.10;1.00
38995;DHT22;24769;18.712;99.000;2024-03-17T04:54:42;33.90;1.00
38995;DHT22;24769;18.712;99.000;2024-03-17T04:57:09;34.10;1.00
38995;DHT22;24769;18.712;99.000;2024-03-17T04:59:36;34.10;1.00
38995;DHT22;24769;18.712;99.000;2024-03-17T05:02:04;34.10;1.00
38995;DHT22;24769;18.712;99.000;2024-03-17T05:04:31;33.80;1.00
38995;DHT22;24769;18.712;99.000;2024-03-17T05:06:58;33.80;1.00
38995;DHT22;24769;18.712;99.000;2024-03-17T05:09:25;34.30;1.00
38995;DHT22;24769;18.712;99.000;2024-03-17T05:11:52;33.90;1.00
38995;DHT22;24769;18.712;99.000;2024-03-17T05:14:18;34.40;1.00
38995;DHT22;24769;18.712;99.000;2024-03-17T05:16:51;34.80;1.00
38995;DHT22;24769;18.712;99.000;2024-03-17T05:19:18;34.80;1.00
38995;DHT22;24769;18.712;99.000;2024-03-17T05:21:45;35.00;1.00
38995;DHT22;24769;18.712;99.000;2024-03-17T05:24:13;35.00;1.00
38995;DHT22;24769;18.712;99.000;2024-03-17T05:26:40;35.00;1.00
38995;DHT22;24769;18.712;99.000;2024-03-17T05:29:08;35.10;1.00
38995;DHT22;24769;18.712;99.000;2024-03-17T05:31:36;35.30;1.00
38995;DHT22;24769;18.712;99.000;2024-03-17T05:34:06;34.90;1.00
38995;DHT22;24769;18.712;99.000;2024-03-17T05:36:33;34.70;1.00
38995;DHT22;24769;18.712;99.000;2024-03-17T05:39:01;34.90;1.00
38995;DHT22;24769;18.712;99.000;2024-03-17T05:41:27;35.10;1.00
38995;DHT22;24769;18.712;99.000;2024-03-17T05:43:54;35.00;1.00
38995;DHT22;24769;18.712;99.000;2024-03-17T05:46:25;34.80;1.00
38995;DHT22;24769;18.712;99.000;2024-03-17T05:48:54;35.00;1.00
38995;DHT22;24769;18.712;99.000;2024-03-17T05:51:21;35.50;1.00
38995;DHT22;24769;18.712;99.000;2024-03-17T05:53:48;35.10;1.00
38995;DHT22;24769;18.712;99.000;2024-03-17T05:56:15;35.20;1.00
38995;DHT22;24769;18.712;99.000;2024-03-17T05:58:42;35.50;1.00
38995;DHT22;24769;18.712;99.000;2024-03-17T06:01:09;35.30;1.00
38995;DHT22;24769;18.712;99.000;2024-03-17T06:03:37;35.20;1.00
38995;DHT22;24769;18.712;99.000;2024-03-17T06:06:05;35.10;1.00
38995;DHT22;24769;18.712;99.000;2024-03-17T06:08:36;35.20;1.00
38995;DHT22;24769;18.712;99.000;2024-03-17T06:11:04;35.40;1.00
38995;DHT22;24769;18.712;99.000;2024-03-17T06:13:31;35.70;1.00
38995;DHT22;24769;18.712;99.000;2024-03-17T06:15:58;35.90;1.00
38995;DHT22;24769;18.712;99.000;2024-03-17T06:18:27;35.70;1.00
38995;DHT22;24769;18.712;99.000;2024-03-17T06:20:54;35.30;1.00
38995;DHT22;24769;18.712;99.000;2024-03-17T06:23:24;35.40;1.00
38995;DHT22;24769;18.712;99.000;2024-03-17T06:25:54;35.50;1.00
38995;DHT22;24769;18.712;99.000;2024-03-17T06:28:22;36.20;1.00
38995;DHT22;24769;18.712;99.000;2024-03-17T06:30:58;36.10;1.00
38995;DHT22;24769;18.712;99.000;2024-03-17T06:33:26;35.70;1.00
38995;DHT22;24769;18.712;99.000;2024-03-17T06:35:54;35.90;1.00
38995;DHT22;24769;18.712;99.000;2024-03-17T06:38:21;35.90;1.00
38995;DHT22;24769;18.712;99.000;2024-03-17T06:40:50;35.80;1.00
38995;DHT22;24769;18.712;99.000;2024-03-17T06:43:16;35.70;1.00
38995;DHT22;24769;18.712;99.000;2024-03-17T06:45:43;36.00;1.00
38995;DHT22;24769;18.712;99.000;2024-03-17T06:48:10;35.90;1.00
38995;DHT22;24769;18.712;99.000;2024-03-17T06:50:38;36.00;1.00
38995;DHT22;24769;18.712;99.000;2024-03-17T06:53:08;36.30;1.00
38995;DHT22;24769;18.712;99.000;2024-03-17T06:55:35;35.90;1.00
38995;DHT22;24769;18.712;99.000;2024-03-17T06:58:02;36.10;1.00
38995;DHT22;24769;18.712;99.000;2024-03-17T07:00:32;36.10;1.00
38995;DHT22;24769;18.712;99.000;2024-03-17T07:02:59;36.10;1.00
38995;DHT22;24769;18.712;99.000;2024-03-17T07:05:26;36.10;1.00
38995;DHT22;24769;18.712;99.000;2024-03-17T07:07:52;36.10;1.00
38995;DHT22;24769;18.712;99.000;2024-03-17T07:10:19;36.00;1.00
38995;DHT22;24769;18.712;99.000;2024-03-17T07:12:46;36.10;1.00
38995;DHT22;24769;18.712;99.000;2024-03-17T07:15:13;36.10;1.00
38995;DHT22;24769;18.712;99.000;2024-03-17T07:17:40;36.10;1.00
38995;DHT22;24769;18.712;99.000;2024-03-17T07:20:07;35.80;1.00
38995;DHT22;24769;18.712;99.000;2024-03-17T07:22:35;35.80;1.00
38995;DHT22;24769;18.712;99.000;2024-03-17T07:25:02;36.10;1.00
38995;DHT22;24769;18.712;99.000;2024-03-17T07:27:28;36.20;1.00
38995;DHT22;24769;18.712;99.000;2024-03-17T07:29:55;36.40;1.00
38995;DHT22;24769;18.712;99.000;2024-03-17T07:32:22;36.40;1.00
38995;DHT22;24769;18.712;99.000;2024-03-17T07:34:49;36.60;1.00
38995;DHT22;24769;18.712;99.000;2024-03-17T07:37:17;36.40;1.00
38995;DHT22;24769;18.712;99.000;2024-03-17T07:39:43;36.50;1.00
38995;DHT22;24769;18.712;99.000;2024-03-17T07:42:11;36.70;1.00
38995;DHT22;24769;18.712;99.000;2024-03-17T07:44:39;36.80;1.00
38995;DHT22;24769;18.712;99.000;2024-03-17T07:47:06;36.70;1.00
38995;DHT22;24769;18.712;99.000;2024-03-17T07:49:33;36.50;1.00
38995;DHT22;24769;18.712;99.000;2024-03-17T07:52:00;36.70;1.00
38995;DHT22;24769;18.712;99.000;2024-03-17T07:54:28;36.90;1.00
38995;DHT22;24769;18.712;99.000;2024-03-17T07:56:55;36.90;1.00
38995;DHT22;24769;18.712;99.000;2024-03-17T07:59:21;37.00;1.00
38995;DHT22;24769;18.712;99.000;2024-03-17T08:01:48;37.10;1.00
38995;DHT22;24769;18.712;99.000;2024-03-17T08:04:16;37.00;1.00
38995;DHT22;24769;18.712;99.000;2024-03-17T08:06:43;36.70;1.00
38995;DHT22;24769;18.712;99.000;2024-03-17T08:09:13;36.60;1.00
38995;DHT22;24769;18.712;99.000;2024-03-17T08:11:42;36.80;1.00
38995;DHT22;24769;18.712;99.000;2024-03-17T08:14:13;36.90;1.00
38995;DHT22;24769;18.712;99.000;2024-03-17T08:16:42;36.80;1.00
38995;DHT22;24769;18.712;99.000;2024-03-17T08:19:09;36.80;1.00
38995;DHT22;24769;18.712;99.000;2024-03-17T08:21:36;36.60;1.00
38995;DHT22;24769;18.712;99.000;2024-03-17T08:24:02;36.80;1.00
38995;DHT22;24769;18.712;99.000;2024-03-17T08:26:30;36.70;1.00
38995;DHT22;24769;18.712;99.000;2024-03-17T08:28:58;36.60;1.00
38995;DHT22;24769;18.712;99.000;2024-03-17T08:31:25;36.60;1.00
38995;DHT22;24769;18.712;99.000;2024-03-17T08:33:51;36.40;1.00
38995;DHT22;24769;18.712;99.000;2024-03-17T08:36:18;36.40;1.00
38995;DHT22;24769;18.712;99.000;2024-03-17T08:38:46;36.20;1.00
38995;DHT22;24769;18.712;99.000;2024-03-17T08:41:14;36.30;1.00
38995;DHT22;24769;18.712;99.000;2024-03-17T08:43:40;36.40;1.00
38995;DHT22;24769;18.712;99.000;2024-03-17T08:46:11;36.20;1.00
38995;DHT22;24769;18.712;99.000;2024-03-17T08:48:40;36.30;1.00
38995;DHT22;24769;18.712;99.000;2024-03-17T08:51:10;36.20;1.00
38995;DHT22;24769;18.712;99.000;2024-03-17T08:53:37;36.20;1.00
38995;DHT22;24769;18.712;99.000;2024-03-17T08:56:07;36.00;1.00
38995;DHT22;24769;18.712;99.000;2024-03-17T08:58:34;36.00;1.00
38995;DHT22;24769;18.712;99.000;2024-03-17T09:01:08;36.00;1.00
38995;DHT22;24769;18.712;99.000;2024-03-17T09:03:35;36.00;1.00
38995;DHT22;24769;18.712;99.000;2024-03-17T09:06:02;36.10;1.00
38995;DHT22;24769;18.712;99.000;2024-03-17T09:08:29;36.10;1.00
38995;DHT22;24769;18.712;99.000;2024-03-17T09:10:55;35.90;1.00
38995;DHT22;24769;18.712;99.000;2024-03-17T09:13:24;35.90;1.00
38995;DHT22;24769;18.712;99.000;2024-03-17T09:15:53;35.80;1.00
38995;DHT22;24769;18.712;99.000;2024-03-17T09:18:20;35.80;1.00
38995;DHT22;24769;18.712;99.000;2024-03-17T09:20:54;35.90;1.00
38995;DHT22;24769;18.712;99.000;2024-03-17T09:23:22;35.80;1.00
38995;DHT22;24769;18.712;99.000;2024-03-17T09:25:56;35.70;1.00
38995;DHT22;24769;18.712;99.000;2024-03-17T09:28:23;35.70;1.00
38995;DHT22;24769;18.712;99.000;2024-03-17T09:30:50;35.70;1.00
38995;DHT22;24769;18.712;99.000;2024-03-17T09:33:19;35.70;1.00
38995;DHT22;24769;18.712;99.000;2024-03-17T09:35:57;35.50;1.00
38995;DHT22;24769;18.712;99.000;2024-03-17T09:38:25;35.50;1.00
38995;DHT22;24769;18.712;99.000;2024-03-17T09:40:52;35.40;1.00
38995;DHT22;24769;18.712;99.000;2024-03-17T09:43:21;35.40;1.00
38995;DHT22;24769;18.712;99.000;2024-03-17T09:45:49;35.30;1.00
38995;DHT22;24769;18.712;99.000;2024-03-17T09:48:20;35.20;1.00
38995;DHT22;24769;18.712;99.000;2024-03-17T09:50:55;35.20;1.00
38995;DHT22;24769;18.712;99.000;2024-03-17T09:53:30;34.90;1.00
38995;DHT22;24769;18.712;99.000;2024-03-17T09:56:08;34.90;1.00
38995;DHT22;24769;18.712;99.000;2024-03-17T09:58:35;34.70;1.00
38995;DHT22;24769;18.712;99.000;2024-03-17T10:01:02;34.70;1.00
38995;DHT22;24769;18.712;99.000;2024-03-17T10:03:48;34.70;1.00
38995;DHT22;24769;18.712;99.000;2024-03-17T10:06:22;34.50;1.00
38995;DHT22;24769;18.712;99.000;2024-03-17T10:08:52;34.30;1.00
38995;DHT22;24769;18.712;99.000;2024-03-17T10:11:20;34.10;1.00
38995;DHT22;24769;18.712;99.000;2024-03-17T10:14:00;33.90;1.00
38995;DHT22;24769;18.712;99.000;2024-03-17T10:16:29;33.90;1.00
38995;DHT22;24769;18.712;99.000;2024-03-17T10:19:13;33.80;1.00
38995;DHT22;24769;18.712;99.000;2024-03-17T10:21:45;33.70;1.00
38995;DHT22;24769;18.712;99.000;2024-03-17T10:24:24;33.50;1.00
38995;DHT22;24769;18.712;99.000;2024-03-17T10:27:02;33.30;1.00
38995;DHT22;24769;18.712;99.000;2024-03-17T10:29:33;33.20;1.00
38995;DHT22;24769;18.712;99.000;2024-03-17T10:32:13;33.10;1.00
38995;DHT22;24769;18.712;99.000;2024-03-17T10:34:40;33.00;1.00
38995;DHT22;24769;18.712;99.000;2024-03-17T10:37:10;32.90;1.00
38995;DHT22;24769;18.712;99.000;2024-03-17T10:39:38;32.70;1.00
38995;DHT22;24769;18.712;99.000;2024-03-17T10:42:08;32.60;1.00
38995;DHT22;24769;18.712;99.000;2024-03-17T10:44:37;32.40;1.00
38995;DHT22;24769;18.712;99.000;2024-03-17T10:47:05;32.30;1.00
38995;DHT22;24769;18.712;99.000;2024-03-17T10:49:39;32.20;1.00
38995;DHT22;24769;18.712;99.000;2024-03-17T10:52:08;32.10;1.00
38995;DHT22;24769;18.712;99.000;2024-03-17T10:54:50;31.90;1.00
38995;DHT22;24769;18.712;99.000;2024-03-17T10:57:46;31.80;1.00
38995;DHT22;24769;18.712;99.000;2024-03-17T11:00:18;31.60;1.00
38995;DHT22;24769;18.712;99.000;2024-03-17T11:02:46;31.50;1.00
38995;DHT22;24769;18.712;99.000;2024-03-17T11:05:22;31.50;1.00
38995;DHT22;24769;18.712;99.000;2024-03-17T11:07:51;31.40;1.00
38995;DHT22;24769;18.712;99.000;2024-03-17T11:10:27;31.20;1.00
38995;DHT22;24769;18.712;99.000;2024-03-17T11:12:58;31.10;1.00
38995;DHT22;24769;18.712;99.000;2024-03-17T11:15:34;31.00;1.00
38995;DHT22;24769;18.712;99.000;2024-03-17T11:20:40;30.70;1.00
38995;DHT22;24769;18.712;99.000;2024-03-17T11:23:07;30.60;1.00
38995;DHT22;24769;18.712;99.000;2024-03-17T11:25:39;30.50;1.00
38995;DHT22;24769;18.712;99.000;2024-03-17T11:28:10;30.40;1.00
38995;DHT22;24769;18.712;99.000;2024-03-17T11:30:47;30.20;1.00
38995;DHT22;24769;18.712;99.000;2024-03-17T11:47:05;30.00;2.90
38995;DHT22;24769;18.712;99.000;2024-03-17T11:49:34;29.90;3.00
38995;DHT22;24769;18.712;99.000;2024-03-17T11:52:08;29.90;3.60
38995;DHT22;24769;18.712;99.000;2024-03-17T11:54:37;29.90;2.60
38995;DHT22;24769;18.712;99.000;2024-03-17T11:57:14;29.80;3.30
38995;DHT22;24769;18.712;99.000;2024-03-17T11:59:45;29.80;4.30
38995;DHT22;24769;18.712;99.000;2024-03-17T12:02:29;29.70;5.30
38995;DHT22;24769;18.712;99.000;2024-03-17T12:05:02;29.70;5.30
38995;DHT22;24769;18.712;99.000;2024-03-17T12:07:29;29.70;5.70
38995;DHT22;24769;18.712;99.000;2024-03-17T12:09:57;29.70;5.80
38995;DHT22;24769;18.712;99.000;2024-03-17T12:12:27;29.60;7.40
38995;DHT22;24769;18.712;99.000;2024-03-17T12:15:02;29.60;7.60
38995;DHT22;24769;18.712;99.000;2024-03-17T12:17:29;29.60;7.30
38995;DHT22;24769;18.712;99.000;2024-03-17T12:19:56;29.50;7.20
38995;DHT22;24769;18.712;99.000;2024-03-17T12:22:25;29.50;6.70
38995;DHT22;24769;18.712;99.000;2024-03-17T12:24:54;29.40;7.10
38995;DHT22;24769;18.712;99.000;2024-03-17T12:27:24;29.30;5.60
38995;DHT22;24769;18.712;99.000;2024-03-17T12:29:53;29.20;6.80
38995;DHT22;24769;18.712;99.000;2024-03-17T12:32:21;29.40;5.20
38995;DHT22;24769;18.712;99.000;2024-03-17T12:34:52;29.80;1.00
38995;DHT22;24769;18.712;99.000;2024-03-17T12:37:24;30.00;1.10
38995;DHT22;24769;18.712;99.000;2024-03-17T12:39:57;29.80;1.50
38995;DHT22;24769;18.712;99.000;2024-03-17T12:42:29;29.60;1.60
38995;DHT22;24769;18.712;99.000;2024-03-17T12:45:01;29.50;3.20
38995;DHT22;24769;18.712;99.000;2024-03-17T12:47:31;29.60;2.30
38995;DHT22;24769;18.712;99.000;2024-03-17T12:49:59;29.50;3.40
38995;DHT22;24769;18.712;99.000;2024-03-17T12:52:29;29.40;3.30
38995;DHT22;24769;18.712;99.000;2024-03-17T12:55:08;29.20;4.60
38995;DHT22;24769;18.712;99.000;2024-03-17T12:58:13;29.20;4.90
38995;DHT22;24769;18.712;99.000;2024-03-17T13:01:03;29.10;5.90
38995;DHT22;24769;18.712;99.000;2024-03-17T13:03:32;28.90;6.30
38995;DHT22;24769;18.712;99.000;2024-03-17T13:06:00;28.90;7.10
38995;DHT22;24769;18.712;99.000;2024-03-17T13:08:29;28.80;6.00
38995;DHT22;24769;18.712;99.000;2024-03-17T13:10:58;28.80;6.80
38995;DHT22;24769;18.712;99.000;2024-03-17T13:13:26;28.60;7.80
38995;DHT22;24769;18.712;99.000;2024-03-17T13:15:53;28.60;7.70
38995;DHT22;24769;18.712;99.000;2024-03-17T13:18:20;28.60;7.10
38995;DHT22;24769;18.712;99.000;2024-03-17T13:20:48;28.50;7.60
38995;DHT22;24769;18.712;99.000;2024-03-17T13:23:20;28.50;7.30
38995;DHT22;24769;18.712;99.000;2024-03-17T13:25:53;28.50;8.60
38995;DHT22;24769;18.712;99.000;2024-03-17T13:28:22;28.50;8.60
38995;DHT22;24769;18.712;99.000;2024-03-17T13:30:49;28.50;9.30
38995;DHT22;24769;18.712;99.000;2024-03-17T13:33:16;28.40;8.80
38995;DHT22;24769;18.712;99.000;2024-03-17T13:35:44;28.30;9.20
38995;DHT22;24769;18.712;99.000;2024-03-17T13:38:11;28.30;10.10
38995;DHT22;24769;18.712;99.000;2024-03-17T13:40:40;28.20;10.50
38995;DHT22;24769;18.712;99.000;2024-03-17T13:43:09;28.20;10.70
38995;DHT22;24769;18.712;99.000;2024-03-17T13:45:41;28.10;11.40
38995;DHT22;24769;18.712;99.000;2024-03-17T13:48:13;28.00;12.10
38995;DHT22;24769;18.712;99.000;2024-03-17T13:50:41;27.90;11.40
38995;DHT22;24769;18.712;99.000;2024-03-17T13:53:13;27.80;12.20
38995;DHT22;24769;18.712;99.000;2024-03-17T13:55:40;27.80;12.30
38995;DHT22;24769;18.712;99.000;2024-03-17T13:58:09;27.90;12.60
38995;DHT22;24769;18.712;99.000;2024-03-17T14:00:36;27.90;12.90
38995;DHT22;24769;18.712;99.000;2024-03-17T14:03:05;27.90;13.10
38995;DHT22;24769;18.712;99.000;2024-03-17T14:05:32;27.80;14.10
38995;DHT22;24769;18.712;99.000;2024-03-17T14:08:00;27.80;14.40
38995;DHT22;24769;18.712;99.000;2024-03-17T14:10:27;27.80;14.00
38995;DHT22;24769;18.712;99.000;2024-03-17T14:12:54;27.70;13.80
38995;DHT22;24769;18.712;99.000;2024-03-17T14:15:22;27.70;14.90
38995;DHT22;24769;18.712;99.000;2024-03-17T14:17:49;27.70;15.30
38995;DHT22;24769;18.712;99.000;2024-03-17T14:20:16;27.80;13.60
38995;DHT22;24769;18.712;99.000;2024-03-17T14:22:47;27.90;13.70
38995;DHT22;24769;18.712;99.000;2024-03-17T14:25:17;27.70;13.60
38995;DHT22;24769;18.712;99.000;2024-03-17T14:27:45;27.70;12.50
38995;DHT22;24769;18.712;99.000;2024-03-17T14:30:18;27.70;12.50
38995;DHT22;24769;18.712;99.000;2024-03-17T14:32:46;27.60;12.50
38995;DHT22;24769;18.712;99.000;2024-03-17T14:35:17;27.50;13.30
38995;DHT22;24769;18.712;99.000;2024-03-17T14:37:46;27.50;13.20
38995;DHT22;24769;18.712;99.000;2024-03-17T14:40:19;27.40;13.60
38995;DHT22;24769;18.712;99.000;2024-03-17T14:42:55;27.40;14.20
38995;DHT22;24769;18.712;99.000;2024-03-17T14:45:22;27.30;14.10
38995;DHT22;24769;18.712;99.000;2024-03-17T14:47:50;27.20;14.40
38995;DHT22;24769;18.712;99.000;2024-03-17T14:50:18;27.40;14.30
38995;DHT22;24769;18.712;99.000;2024-03-17T14:52:45;27.40;14.30
38995;DHT22;24769;18.712;99.000;2024-03-17T14:55:13;27.40;14.60
38995;DHT22;24769;18.712;99.000;2024-03-17T14:57:40;27.30;15.10
38995;DHT22;24769;18.712;99.000;2024-03-17T15:00:13;27.50;15.10
38995;DHT22;24769;18.712;99.000;2024-03-17T15:02:45;27.50;13.70
38995;DHT22;24769;18.712;99.000;2024-03-17T15:05:13;27.70;13.60
38995;DHT22;24769;18.712;99.000;2024-03-17T15:07:48;27.70;12.40
38995;DHT22;24769;18.712;99.000;2024-03-17T15:10:15;27.70;11.90
38995;DHT22;24769;18.712;99.000;2024-03-17T15:12:43;27.50;12.80
38995;DHT22;24769;18.712;99.000;2024-03-17T15:15:11;27.40;13.40
38995;DHT22;24769;18.712;99.000;2024-03-17T15:17:39;27.20;13.80
38995;DHT22;24769;18.712;99.000;2024-03-17T15:20:06;27.10;14.30
38995;DHT22;24769;18.712;99.000;2024-03-17T15:22:50;27.00;15.50
38995;DHT22;24769;18.712;99.000;2024-03-17T15:25:18;27.00;14.90
38995;DHT22;24769;18.712;99.000;2024-03-17T15:27:51;26.80;15.50
38995;DHT22;24769;18.712;99.000;2024-03-17T15:30:19;26.80;16.60
38995;DHT22;24769;18.712;99.000;2024-03-17T15:32:46;26.80;16.50
38995;DHT22;24769;18.712;99.000;2024-03-17T15:35:13;26.70;17.40
38995;DHT22;24769;18.712;99.000;2024-03-17T15:37:44;26.70;17.50
38995;DHT22;24769;18.712;99.000;2024-03-17T15:40:11;26.70;17.60
38995;DHT22;24769;18.712;99.000;2024-03-17T15:42:47;26.60;18.40
38995;DHT22;24769;18.712;99.000;2024-03-17T15:45:19;26.50;19.30
38995;DHT22;24769;18.712;99.000;2024-03-17T15:47:51;26.60;19.50
38995;DHT22;24769;18.712;99.000;2024-03-17T15:50:19;26.50;19.40
38995;DHT22;24769;18.712;99.000;2024-03-17T15:52:46;26.50;20.00
38995;DHT22;24769;18.712;99.000;2024-03-17T15:55:13;26.40;21.20